NMA5061 HEGN-EPRZ
Flight info
| Callsign | NMA5061 |
|---|---|
| Flight time | 4h 14m |
| Altitude | 34000 |
| Route | HGD V608 NABED T55 GINDI W8 ALPID DCT GESON Q777 RASDA M855 KOMEZ DCT TOMBI UA16 AYT UQ26 TUDBU/N0453F360 DCT UPAMA DCT BADOR DCT KENIN DCT ROBTU DCT PODAN DCT ARTOB |
| Aircraft | A320/M-SDE3FGHIRWY/LB1 |
Departure
| Time | 2026-04-25 11:29 |
|---|---|
| Airport | Hurghada International Airport (HEGN) |
Arrival
| Time | 2026-04-25 15:44 |
|---|---|
| Airport | Rzeszów-Jasionka Airport (EPRZ) |
| Time | Latitude | Longitude | Altitude | Speed | Heading |
|---|---|---|---|---|---|
| 2026-04-25 10:38 | 27.17248 | 33.80622 | 85 ft | 0 kts | 255° |
| 2026-04-25 11:09 | 27.17248 | 33.80623 | 58 ft | 2 kts | 255° |
| 2026-04-25 11:09 | 27.17254 | 33.80652 | 55 ft | 4 kts | 263° |
| 2026-04-25 11:09 | 27.17254 | 33.80682 | 53 ft | 4 kts | 284° |
| 2026-04-25 11:09 | 27.17243 | 33.80704 | 50 ft | 3 kts | 338° |
| 2026-04-25 11:10 | 27.17239 | 33.80706 | 52 ft | 0 kts | 345° |
| 2026-04-25 11:13 | 27.17242 | 33.80705 | 58 ft | 2 kts | 345° |
| 2026-04-25 11:13 | 27.17280 | 33.80694 | 51 ft | 9 kts | 345° |
| 2026-04-25 11:13 | 27.17353 | 33.80672 | 54 ft | 12 kts | 345° |
| 2026-04-25 11:13 | 27.17435 | 33.80648 | 56 ft | 13 kts | 345° |
| 2026-04-25 11:14 | 27.17485 | 33.80581 | 58 ft | 13 kts | 250° |
| 2026-04-25 11:14 | 27.17479 | 33.80557 | 56 ft | 6 kts | 259° |
| 2026-04-25 11:14 | 27.17465 | 33.80491 | 57 ft | 9 kts | 255° |
| 2026-04-25 11:14 | 27.17446 | 33.80412 | 52 ft | 14 kts | 255° |
| 2026-04-25 11:15 | 27.17418 | 33.80295 | 51 ft | 15 kts | 255° |
| 2026-04-25 11:15 | 27.17388 | 33.80172 | 54 ft | 18 kts | 255° |
| 2026-04-25 11:15 | 27.17355 | 33.80036 | 51 ft | 19 kts | 255° |
| 2026-04-25 11:15 | 27.17317 | 33.79883 | 63 ft | 21 kts | 254° |
| 2026-04-25 11:16 | 27.17266 | 33.79661 | 91 ft | 8 kts | 255° |
| 2026-04-25 11:16 | 27.17243 | 33.79564 | 101 ft | 17 kts | 255° |
| 2026-04-25 11:16 | 27.17192 | 33.79510 | 103 ft | 0 kts | 167° |
| 2026-04-25 11:17 | 27.17170 | 33.79512 | 103 ft | 4 kts | 175° |
| 2026-04-25 11:17 | 27.17085 | 33.79534 | 105 ft | 15 kts | 166° |
| 2026-04-25 11:17 | 27.17000 | 33.79559 | 107 ft | 11 kts | 165° |
| 2026-04-25 11:17 | 27.16936 | 33.79577 | 107 ft | 9 kts | 165° |
| 2026-04-25 11:18 | 27.16836 | 33.79608 | 106 ft | 27 kts | 165° |
| 2026-04-25 11:18 | 27.16629 | 33.79667 | 108 ft | 29 kts | 165° |
| 2026-04-25 11:18 | 27.16507 | 33.79705 | 109 ft | 29 kts | 164° |
| 2026-04-25 11:18 | 27.16309 | 33.79764 | 115 ft | 28 kts | 165° |
| 2026-04-25 11:19 | 27.16135 | 33.79816 | 114 ft | 28 kts | 165° |
| 2026-04-25 11:19 | 27.15993 | 33.79857 | 116 ft | 10 kts | 167° |
| 2026-04-25 11:19 | 27.15946 | 33.79844 | 121 ft | 5 kts | 220° |
| 2026-04-25 11:19 | 27.15934 | 33.79825 | 121 ft | 4 kts | 244° |
| 2026-04-25 11:20 | 27.15929 | 33.79805 | 120 ft | 0 kts | 254° |
| 2026-04-25 11:27 | 27.15929 | 33.79803 | 122 ft | 2 kts | 254° |
| 2026-04-25 11:27 | 27.15915 | 33.79751 | 119 ft | 9 kts | 254° |
| 2026-04-25 11:27 | 27.15910 | 33.79688 | 120 ft | 6 kts | 306° |
| 2026-04-25 11:27 | 27.15926 | 33.79679 | 117 ft | 0 kts | 346° |
| 2026-04-25 11:28 | 27.15929 | 33.79678 | 117 ft | 4 kts | 345° |
| 2026-04-25 11:28 | 27.16057 | 33.79640 | 117 ft | 41 kts | 344° |
| 2026-04-25 11:28 | 27.16565 | 33.79493 | 114 ft | 107 kts | 345° |
| 2026-04-25 11:28 | 27.17464 | 33.79224 | 99 ft | 159 kts | 346° |
| 2026-04-25 11:29 | 27.18671 | 33.78782 | 238 ft | 191 kts | 330° |
| 2026-04-25 11:29 | 27.19544 | 33.78379 | 635 ft | 180 kts | 358° |
| 2026-04-25 11:29 | 27.20520 | 33.78301 | 1187 ft | 181 kts | 357° |
| 2026-04-25 11:29 | 27.21719 | 33.77968 | 334 ft | 224 kts | 287° |
| 2026-04-25 11:30 | 27.17246 | 33.80612 | 334 ft | 0 kts | 255° |
| 2026-04-25 11:32 | 27.17248 | 33.80622 | 54 ft | 0 kts | 255° |
| 2026-04-25 11:40 | 27.17253 | 33.80646 | 56 ft | 4 kts | 261° |
| 2026-04-25 11:40 | 27.17255 | 33.80676 | 53 ft | 4 kts | 279° |
| 2026-04-25 11:40 | 27.17246 | 33.80702 | 52 ft | 4 kts | 327° |
| 2026-04-25 11:41 | 27.17239 | 33.80706 | 52 ft | 0 kts | 345° |
| 2026-04-25 11:45 | 27.17244 | 33.80704 | 55 ft | 3 kts | 345° |
| 2026-04-25 11:45 | 27.17276 | 33.80695 | 51 ft | 6 kts | 345° |
| 2026-04-25 11:45 | 27.17335 | 33.80677 | 53 ft | 11 kts | 345° |
| 2026-04-25 11:46 | 27.17428 | 33.80650 | 53 ft | 15 kts | 345° |
| 2026-04-25 11:46 | 27.17463 | 33.80637 | 53 ft | 1 kts | 333° |
| 2026-04-25 11:46 | 27.17486 | 33.80590 | 58 ft | 9 kts | 274° |
| 2026-04-25 11:46 | 27.17473 | 33.80525 | 53 ft | 10 kts | 254° |
| 2026-04-25 11:47 | 27.17451 | 33.80437 | 52 ft | 14 kts | 255° |
| 2026-04-25 11:47 | 27.17420 | 33.80303 | 51 ft | 20 kts | 255° |
| 2026-04-25 11:47 | 27.17388 | 33.80171 | 54 ft | 15 kts | 255° |
| 2026-04-25 11:47 | 27.17360 | 33.80056 | 56 ft | 17 kts | 255° |
| 2026-04-25 11:48 | 27.17328 | 33.79924 | 53 ft | 18 kts | 255° |
| 2026-04-25 11:48 | 27.17296 | 33.79789 | 68 ft | 17 kts | 255° |
| 2026-04-25 11:48 | 27.17267 | 33.79666 | 91 ft | 17 kts | 255° |
| 2026-04-25 11:48 | 27.17242 | 33.79560 | 101 ft | 10 kts | 255° |
| 2026-04-25 11:49 | 27.17201 | 33.79507 | 102 ft | 13 kts | 195° |
| 2026-04-25 11:49 | 27.17084 | 33.79534 | 105 ft | 20 kts | 165° |
| 2026-04-25 11:49 | 27.16947 | 33.79575 | 107 ft | 21 kts | 165° |
| 2026-04-25 11:49 | 27.16795 | 33.79621 | 104 ft | 24 kts | 165° |
| 2026-04-25 11:50 | 27.16633 | 33.79668 | 108 ft | 24 kts | 165° |
| 2026-04-25 11:50 | 27.16472 | 33.79716 | 109 ft | 24 kts | 165° |
| 2026-04-25 11:50 | 27.16319 | 33.79761 | 114 ft | 24 kts | 166° |
| 2026-04-25 11:50 | 27.16146 | 33.79812 | 112 ft | 27 kts | 165° |
| 2026-04-25 11:51 | 27.15988 | 33.79858 | 117 ft | 17 kts | 169° |
| 2026-04-25 11:51 | 27.15931 | 33.79807 | 120 ft | 0 kts | 262° |
| 2026-04-25 11:51 | 27.15930 | 33.79804 | 118 ft | 3 kts | 256° |
| 2026-04-25 11:51 | 27.15920 | 33.79765 | 120 ft | 5 kts | 254° |
| 2026-04-25 11:52 | 27.15909 | 33.79719 | 120 ft | 7 kts | 256° |
| 2026-04-25 11:52 | 27.15934 | 33.79676 | 118 ft | 7 kts | 337° |
| 2026-04-25 11:52 | 27.15946 | 33.79674 | 118 ft | 0 kts | 354° |
| 2026-04-25 11:52 | 27.15950 | 33.79673 | 118 ft | 0 kts | 346° |
| 2026-04-25 11:53 | 27.15954 | 33.79671 | 118 ft | 0 kts | 346° |
| 2026-04-25 11:53 | 27.15960 | 33.79670 | 119 ft | 6 kts | 345° |
| 2026-04-25 11:53 | 27.16188 | 33.79604 | 116 ft | 68 kts | 346° |
| 2026-04-25 11:54 | 27.16833 | 33.79412 | 113 ft | 125 kts | 344° |
| 2026-04-25 11:54 | 27.17847 | 33.79109 | 102 ft | 174 kts | 345° |
| 2026-04-25 11:54 | 27.20114 | 33.78355 | 819 ft | 200 kts | 338° |
| 2026-04-25 11:55 | 27.21574 | 33.77825 | 1624 ft | 199 kts | 344° |
| 2026-04-25 11:55 | 27.22914 | 33.77384 | 2266 ft | 203 kts | 348° |
| 2026-04-25 11:55 | 27.24347 | 33.76968 | 2571 ft | 222 kts | 345° |
| 2026-04-25 11:55 | 27.25951 | 33.76102 | 2644 ft | 256 kts | 316° |
| 2026-04-25 11:56 | 27.27134 | 33.74458 | 3076 ft | 270 kts | 311° |
| 2026-04-25 11:56 | 27.28377 | 33.72890 | 3911 ft | 266 kts | 312° |
| 2026-04-25 11:56 | 27.29656 | 33.71400 | 4801 ft | 264 kts | 312° |
| 2026-04-25 11:56 | 27.30953 | 33.69932 | 5578 ft | 264 kts | 313° |
| 2026-04-25 11:57 | 27.32254 | 33.68460 | 6326 ft | 267 kts | 313° |
| 2026-04-25 11:57 | 27.33575 | 33.66960 | 7016 ft | 270 kts | 313° |
| 2026-04-25 11:57 | 27.34840 | 33.65378 | 7706 ft | 270 kts | 300° |
| 2026-04-25 11:57 | 27.35493 | 33.63414 | 8362 ft | 271 kts | 276° |
| 2026-04-25 11:58 | 27.35477 | 33.61292 | 9067 ft | 272 kts | 267° |
| 2026-04-25 11:58 | 27.35383 | 33.59158 | 9816 ft | 274 kts | 268° |
| 2026-04-25 11:58 | 27.35295 | 33.56942 | 10158 ft | 291 kts | 268° |
| 2026-04-25 11:58 | 27.35207 | 33.54580 | 10303 ft | 313 kts | 268° |
| 2026-04-25 11:59 | 27.35116 | 33.52084 | 10422 ft | 334 kts | 268° |
| 2026-04-25 11:59 | 27.35019 | 33.49384 | 10549 ft | 353 kts | 268° |
| 2026-04-25 11:59 | 27.34920 | 33.46571 | 10931 ft | 363 kts | 267° |
| 2026-04-25 12:00 | 27.34710 | 33.40818 | 11996 ft | 372 kts | 267° |
| 2026-04-25 12:00 | 27.34601 | 33.37907 | 12617 ft | 374 kts | 266° |
| 2026-04-25 12:00 | 27.34377 | 33.32023 | 13812 ft | 378 kts | 266° |
| 2026-04-25 12:01 | 27.34261 | 33.29058 | 14340 ft | 381 kts | 266° |
| 2026-04-25 12:01 | 27.34143 | 33.26064 | 14874 ft | 384 kts | 266° |
| 2026-04-25 12:01 | 27.34030 | 33.23060 | 15322 ft | 387 kts | 266° |
| 2026-04-25 12:01 | 27.33913 | 33.19985 | 15821 ft | 389 kts | 266° |
| 2026-04-25 12:02 | 27.33675 | 33.13903 | 16823 ft | 395 kts | 266° |
| 2026-04-25 12:02 | 27.33550 | 33.10761 | 17299 ft | 398 kts | 266° |
| 2026-04-25 12:02 | 27.33422 | 33.07637 | 17778 ft | 401 kts | 266° |
| 2026-04-25 12:03 | 27.33293 | 33.04498 | 18236 ft | 403 kts | 266° |
| 2026-04-25 12:03 | 27.33203 | 33.02360 | 18504 ft | 405 kts | 266° |
| 2026-04-25 12:03 | 27.33071 | 32.99196 | 18913 ft | 407 kts | 266° |
| 2026-04-25 12:03 | 27.32941 | 32.96010 | 19301 ft | 409 kts | 266° |
| 2026-04-25 12:04 | 27.32813 | 32.92812 | 19704 ft | 410 kts | 266° |
| 2026-04-25 12:04 | 27.32684 | 32.89600 | 20102 ft | 412 kts | 266° |
| 2026-04-25 12:04 | 27.32553 | 32.86374 | 20470 ft | 414 kts | 266° |
| 2026-04-25 12:04 | 27.32419 | 32.83127 | 20840 ft | 415 kts | 266° |
| 2026-04-25 12:05 | 27.32285 | 32.79871 | 21210 ft | 417 kts | 266° |
| 2026-04-25 12:05 | 27.32151 | 32.76651 | 21560 ft | 418 kts | 266° |
| 2026-04-25 12:05 | 27.32011 | 32.73334 | 21907 ft | 420 kts | 266° |
| 2026-04-25 12:05 | 27.31870 | 32.70050 | 22258 ft | 421 kts | 266° |
| 2026-04-25 12:06 | 27.31726 | 32.66752 | 22582 ft | 423 kts | 266° |
| 2026-04-25 12:06 | 27.31582 | 32.63448 | 22888 ft | 424 kts | 266° |
| 2026-04-25 12:06 | 27.31437 | 32.60125 | 23237 ft | 425 kts | 266° |
| 2026-04-25 12:06 | 27.31293 | 32.56842 | 23538 ft | 426 kts | 266° |
| 2026-04-25 12:07 | 27.31147 | 32.53465 | 23813 ft | 426 kts | 266° |
| 2026-04-25 12:07 | 27.31005 | 32.50177 | 24080 ft | 427 kts | 266° |
| 2026-04-25 12:07 | 27.30860 | 32.46845 | 24352 ft | 427 kts | 266° |
| 2026-04-25 12:07 | 27.30711 | 32.43506 | 24619 ft | 427 kts | 266° |
| 2026-04-25 12:08 | 27.30558 | 32.40165 | 24874 ft | 427 kts | 266° |
| 2026-04-25 12:08 | 27.30403 | 32.36819 | 25119 ft | 428 kts | 266° |
| 2026-04-25 12:08 | 27.30329 | 32.33470 | 25354 ft | 429 kts | 272° |
| 2026-04-25 12:08 | 27.30747 | 32.30140 | 25593 ft | 431 kts | 281° |
| 2026-04-25 12:09 | 27.31706 | 32.26941 | 25817 ft | 435 kts | 291° |
| 2026-04-25 12:09 | 27.33168 | 32.23981 | 26018 ft | 440 kts | 301° |
| 2026-04-25 12:09 | 27.35023 | 32.21235 | 26214 ft | 442 kts | 303° |
| 2026-04-25 12:09 | 27.36907 | 32.18504 | 26469 ft | 440 kts | 303° |
| 2026-04-25 12:10 | 27.38775 | 32.15781 | 26769 ft | 439 kts | 303° |
| 2026-04-25 12:10 | 27.40632 | 32.13061 | 27037 ft | 437 kts | 303° |
| 2026-04-25 12:10 | 27.42478 | 32.10351 | 27322 ft | 435 kts | 302° |
| 2026-04-25 12:10 | 27.44343 | 32.07608 | 27611 ft | 434 kts | 302° |
| 2026-04-25 12:11 | 27.46178 | 32.04919 | 27933 ft | 432 kts | 302° |
| 2026-04-25 12:11 | 27.48009 | 32.02243 | 28266 ft | 431 kts | 302° |
| 2026-04-25 12:11 | 27.49839 | 31.99571 | 28540 ft | 430 kts | 302° |
| 2026-04-25 12:11 | 27.51642 | 31.96936 | 28815 ft | 428 kts | 302° |
| 2026-04-25 12:12 | 27.53459 | 31.94276 | 29104 ft | 427 kts | 302° |
| 2026-04-25 12:12 | 27.54659 | 31.92515 | 29298 ft | 426 kts | 302° |
| 2026-04-25 12:12 | 27.57071 | 31.88974 | 29685 ft | 424 kts | 302° |
| 2026-04-25 12:12 | 27.58864 | 31.86339 | 29978 ft | 423 kts | 302° |
| 2026-04-25 12:13 | 27.60651 | 31.83712 | 30241 ft | 421 kts | 301° |
| 2026-04-25 12:13 | 27.62432 | 31.81091 | 30505 ft | 419 kts | 301° |
| 2026-04-25 12:13 | 27.64200 | 31.78487 | 30806 ft | 417 kts | 301° |
| 2026-04-25 12:13 | 27.65960 | 31.75897 | 31092 ft | 414 kts | 301° |
| 2026-04-25 12:14 | 27.67705 | 31.73324 | 31377 ft | 411 kts | 300° |
| 2026-04-25 12:14 | 27.69439 | 31.70763 | 31656 ft | 409 kts | 300° |
| 2026-04-25 12:14 | 27.71162 | 31.68215 | 31931 ft | 406 kts | 300° |
| 2026-04-25 12:14 | 27.72872 | 31.65692 | 32206 ft | 404 kts | 300° |
| 2026-04-25 12:15 | 27.74577 | 31.63179 | 32483 ft | 402 kts | 300° |
| 2026-04-25 12:15 | 27.76272 | 31.60679 | 32767 ft | 399 kts | 299° |
| 2026-04-25 12:15 | 27.77958 | 31.58189 | 33014 ft | 397 kts | 299° |
| 2026-04-25 12:15 | 27.79630 | 31.55713 | 33283 ft | 395 kts | 298° |
| 2026-04-25 12:16 | 27.81293 | 31.53248 | 33543 ft | 392 kts | 298° |
| 2026-04-25 12:16 | 27.82921 | 31.50835 | 33829 ft | 390 kts | 298° |
| 2026-04-25 12:16 | 27.84564 | 31.48400 | 33940 ft | 390 kts | 298° |
| 2026-04-25 12:16 | 27.86211 | 31.45955 | 33974 ft | 390 kts | 298° |
| 2026-04-25 12:17 | 27.89503 | 31.41066 | 33969 ft | 391 kts | 298° |
| 2026-04-25 12:17 | 27.92800 | 31.36161 | 33967 ft | 392 kts | 298° |
| 2026-04-25 12:18 | 27.96108 | 31.31246 | 33964 ft | 392 kts | 298° |
| 2026-04-25 12:18 | 27.99428 | 31.26296 | 33961 ft | 392 kts | 298° |
| 2026-04-25 12:19 | 28.04524 | 31.19045 | 33972 ft | 404 kts | 309° |
| 2026-04-25 12:19 | 28.06845 | 31.17150 | 33952 ft | 421 kts | 321° |
| 2026-04-25 12:20 | 28.09625 | 31.15886 | 33949 ft | 442 kts | 335° |
| 2026-04-25 12:20 | 28.12698 | 31.15435 | 33935 ft | 465 kts | 350° |
| 2026-04-25 12:20 | 28.16022 | 31.15729 | 33938 ft | 475 kts | 354° |
| 2026-04-25 12:21 | 28.22610 | 31.16489 | 33949 ft | 477 kts | 355° |
| 2026-04-25 12:21 | 28.29223 | 31.17249 | 33947 ft | 477 kts | 355° |
| 2026-04-25 12:22 | 28.35833 | 31.17997 | 33928 ft | 477 kts | 355° |
| 2026-04-25 12:22 | 28.42446 | 31.18732 | 33925 ft | 477 kts | 355° |
| 2026-04-25 12:23 | 28.49070 | 31.19467 | 33958 ft | 478 kts | 355° |
| 2026-04-25 12:23 | 28.55469 | 31.20218 | 33945 ft | 479 kts | 356° |
| 2026-04-25 12:24 | 28.62185 | 31.21143 | 33937 ft | 480 kts | 357° |
| 2026-04-25 12:24 | 28.68821 | 31.22106 | 33930 ft | 480 kts | 357° |
| 2026-04-25 12:25 | 28.74338 | 31.22884 | 33945 ft | 480 kts | 358° |
| 2026-04-25 12:25 | 28.82090 | 31.23957 | 33930 ft | 479 kts | 358° |
| 2026-04-25 12:26 | 28.88716 | 31.24868 | 33908 ft | 479 kts | 357° |
| 2026-04-25 12:26 | 28.95347 | 31.25782 | 33927 ft | 479 kts | 358° |
| 2026-04-25 12:27 | 29.01975 | 31.26707 | 33922 ft | 479 kts | 358° |
| 2026-04-25 12:27 | 29.08598 | 31.27634 | 33904 ft | 479 kts | 358° |
| 2026-04-25 12:28 | 29.15219 | 31.28557 | 33905 ft | 479 kts | 358° |
| 2026-04-25 12:28 | 29.21897 | 31.29479 | 33923 ft | 479 kts | 358° |
| 2026-04-25 12:29 | 29.28519 | 31.30407 | 33923 ft | 479 kts | 358° |
| 2026-04-25 12:29 | 29.35138 | 31.31340 | 33917 ft | 479 kts | 358° |
| 2026-04-25 12:30 | 29.40682 | 31.32120 | 33910 ft | 479 kts | 358° |
| 2026-04-25 12:30 | 29.47347 | 31.33054 | 33904 ft | 479 kts | 358° |
| 2026-04-25 12:31 | 29.54011 | 31.33988 | 33899 ft | 479 kts | 358° |
| 2026-04-25 12:31 | 29.60631 | 31.34915 | 33896 ft | 479 kts | 358° |
| 2026-04-25 12:32 | 29.67246 | 31.35840 | 33916 ft | 479 kts | 359° |
| 2026-04-25 12:32 | 29.73875 | 31.36775 | 33906 ft | 479 kts | 359° |
| 2026-04-25 12:33 | 29.80523 | 31.37717 | 33891 ft | 479 kts | 359° |
| 2026-04-25 12:33 | 29.87375 | 31.38688 | 33879 ft | 479 kts | 359° |
| 2026-04-25 12:34 | 29.94320 | 31.39681 | 33889 ft | 478 kts | 359° |
| 2026-04-25 12:34 | 30.01082 | 31.40639 | 33880 ft | 478 kts | 359° |
| 2026-04-25 12:35 | 30.07686 | 31.41572 | 33874 ft | 478 kts | 359° |
| 2026-04-25 12:35 | 30.14289 | 31.42507 | 33892 ft | 478 kts | 359° |
| 2026-04-25 12:36 | 30.20897 | 31.43445 | 33883 ft | 478 kts | 359° |
| 2026-04-25 12:36 | 30.27506 | 31.44389 | 33880 ft | 478 kts | 359° |
| 2026-04-25 12:37 | 30.34118 | 31.45334 | 33872 ft | 478 kts | 359° |
| 2026-04-25 12:37 | 30.39609 | 31.46120 | 33879 ft | 478 kts | 360° |
| 2026-04-25 12:38 | 30.46232 | 31.47067 | 33876 ft | 479 kts | 360° |
| 2026-04-25 12:38 | 30.52843 | 31.48006 | 33867 ft | 479 kts | 360° |
| 2026-04-25 12:39 | 30.59455 | 31.48954 | 33874 ft | 479 kts | 360° |
| 2026-04-25 12:39 | 30.66080 | 31.49904 | 33868 ft | 480 kts | 360° |
| 2026-04-25 12:40 | 30.72714 | 31.50843 | 33859 ft | 478 kts | 357° |
| 2026-04-25 12:40 | 30.79208 | 31.50504 | 33859 ft | 462 kts | 343° |
| 2026-04-25 12:41 | 30.85593 | 31.49319 | 33879 ft | 463 kts | 343° |
| 2026-04-25 12:41 | 30.91976 | 31.48150 | 33871 ft | 464 kts | 343° |
| 2026-04-25 12:42 | 30.98365 | 31.46986 | 33868 ft | 465 kts | 343° |
| 2026-04-25 12:42 | 31.04756 | 31.45819 | 33866 ft | 464 kts | 343° |
| 2026-04-25 12:43 | 31.11138 | 31.44645 | 33883 ft | 465 kts | 343° |
| 2026-04-25 12:43 | 31.20738 | 31.42889 | 33883 ft | 465 kts | 343° |
| 2026-04-25 12:44 | 31.27138 | 31.41710 | 33873 ft | 465 kts | 343° |
| 2026-04-25 12:45 | 31.36753 | 31.39926 | 33892 ft | 466 kts | 343° |
| 2026-04-25 12:45 | 31.46381 | 31.38137 | 33872 ft | 467 kts | 343° |
| 2026-04-25 12:46 | 31.52806 | 31.36947 | 33881 ft | 467 kts | 343° |
| 2026-04-25 12:46 | 31.59268 | 31.35884 | 33916 ft | 471 kts | 347° |
| 2026-04-25 12:47 | 31.65823 | 31.35229 | 33904 ft | 474 kts | 349° |
| 2026-04-25 12:47 | 31.72401 | 31.34691 | 33900 ft | 474 kts | 348° |
| 2026-04-25 12:48 | 31.78976 | 31.34064 | 33909 ft | 473 kts | 347° |
| 2026-04-25 12:48 | 31.85548 | 31.33355 | 33904 ft | 473 kts | 347° |
| 2026-04-25 12:49 | 31.92101 | 31.32639 | 33901 ft | 473 kts | 347° |
| 2026-04-25 12:49 | 31.98664 | 31.31939 | 33898 ft | 473 kts | 347° |
| 2026-04-25 12:50 | 32.05220 | 31.31252 | 33893 ft | 473 kts | 348° |
| 2026-04-25 12:50 | 32.11783 | 31.30562 | 33909 ft | 473 kts | 348° |
| 2026-04-25 12:51 | 32.18339 | 31.29856 | 33904 ft | 473 kts | 348° |
| 2026-04-25 12:51 | 32.24903 | 31.29141 | 33902 ft | 473 kts | 348° |
| 2026-04-25 12:52 | 32.31466 | 31.28429 | 33917 ft | 473 kts | 348° |
| 2026-04-25 12:52 | 32.38022 | 31.27727 | 33917 ft | 473 kts | 349° |
| 2026-04-25 12:53 | 32.44577 | 31.27019 | 33915 ft | 473 kts | 349° |
| 2026-04-25 12:53 | 32.51180 | 31.26305 | 33916 ft | 473 kts | 349° |
| 2026-04-25 12:54 | 32.57641 | 31.25175 | 33931 ft | 464 kts | 338° |
| 2026-04-25 12:54 | 32.63563 | 31.22243 | 33938 ft | 456 kts | 328° |
| 2026-04-25 12:55 | 32.68339 | 31.19452 | 33930 ft | 457 kts | 328° |
| 2026-04-25 12:55 | 32.74973 | 31.15582 | 33923 ft | 457 kts | 328° |
| 2026-04-25 12:56 | 32.80686 | 31.12241 | 33920 ft | 457 kts | 328° |
| 2026-04-25 12:56 | 32.86400 | 31.08887 | 33923 ft | 457 kts | 329° |
| 2026-04-25 12:57 | 32.92121 | 31.05528 | 33912 ft | 458 kts | 329° |
| 2026-04-25 12:57 | 32.97837 | 31.02173 | 33907 ft | 458 kts | 329° |
| 2026-04-25 12:58 | 33.03559 | 30.98808 | 33906 ft | 458 kts | 329° |
| 2026-04-25 12:58 | 33.09434 | 30.95787 | 33924 ft | 464 kts | 340° |
| 2026-04-25 12:59 | 33.15886 | 30.94777 | 33910 ft | 473 kts | 354° |
| 2026-04-25 12:59 | 33.22488 | 30.94549 | 33899 ft | 474 kts | 354° |
| 2026-04-25 13:00 | 33.25785 | 30.94424 | 33899 ft | 475 kts | 354° |
| 2026-04-25 13:00 | 33.35705 | 30.94043 | 33914 ft | 475 kts | 354° |
| 2026-04-25 13:01 | 33.42326 | 30.93784 | 33920 ft | 476 kts | 354° |
| 2026-04-25 13:01 | 33.48952 | 30.93536 | 33911 ft | 476 kts | 354° |
| 2026-04-25 13:02 | 33.55616 | 30.93284 | 33916 ft | 476 kts | 354° |
| 2026-04-25 13:02 | 33.62246 | 30.93026 | 33919 ft | 476 kts | 354° |
| 2026-04-25 13:03 | 33.67806 | 30.92818 | 33918 ft | 476 kts | 354° |
| 2026-04-25 13:03 | 33.74411 | 30.92567 | 33923 ft | 477 kts | 354° |
| 2026-04-25 13:04 | 33.81045 | 30.92321 | 33929 ft | 477 kts | 355° |
| 2026-04-25 13:04 | 33.87683 | 30.92075 | 33925 ft | 477 kts | 355° |
| 2026-04-25 13:05 | 33.94324 | 30.91822 | 33922 ft | 477 kts | 355° |
| 2026-04-25 13:05 | 34.00954 | 30.91511 | 33921 ft | 476 kts | 354° |
| 2026-04-25 13:06 | 34.07578 | 30.91114 | 33933 ft | 476 kts | 354° |
| 2026-04-25 13:06 | 34.14213 | 30.90718 | 33932 ft | 477 kts | 354° |
| 2026-04-25 13:07 | 34.20846 | 30.90340 | 33929 ft | 477 kts | 354° |
| 2026-04-25 13:07 | 34.27494 | 30.89995 | 33928 ft | 477 kts | 355° |
| 2026-04-25 13:08 | 34.34137 | 30.89725 | 33929 ft | 478 kts | 355° |
| 2026-04-25 13:08 | 34.40758 | 30.89476 | 33925 ft | 478 kts | 355° |
| 2026-04-25 13:09 | 34.47409 | 30.89206 | 33938 ft | 477 kts | 355° |
| 2026-04-25 13:09 | 34.54058 | 30.88909 | 33930 ft | 478 kts | 355° |
| 2026-04-25 13:10 | 34.60707 | 30.88625 | 33927 ft | 478 kts | 355° |
| 2026-04-25 13:10 | 34.67366 | 30.88348 | 33924 ft | 478 kts | 355° |
| 2026-04-25 13:11 | 34.73974 | 30.88064 | 33936 ft | 478 kts | 355° |
| 2026-04-25 13:11 | 34.80631 | 30.87791 | 33933 ft | 478 kts | 355° |
| 2026-04-25 13:12 | 34.87291 | 30.87500 | 33931 ft | 478 kts | 355° |
| 2026-04-25 13:12 | 34.92830 | 30.87253 | 33943 ft | 478 kts | 355° |
| 2026-04-25 13:13 | 35.00564 | 30.86920 | 33941 ft | 478 kts | 356° |
| 2026-04-25 13:13 | 35.07215 | 30.86651 | 33942 ft | 478 kts | 355° |
| 2026-04-25 13:14 | 35.13867 | 30.86356 | 33944 ft | 478 kts | 355° |
| 2026-04-25 13:14 | 35.20512 | 30.86061 | 33953 ft | 478 kts | 356° |
| 2026-04-25 13:15 | 35.27130 | 30.85787 | 33948 ft | 478 kts | 356° |
| 2026-04-25 13:15 | 35.33772 | 30.85509 | 33950 ft | 477 kts | 356° |
| 2026-04-25 13:16 | 35.40426 | 30.85230 | 33954 ft | 477 kts | 356° |
| 2026-04-25 13:16 | 35.47074 | 30.84935 | 33949 ft | 477 kts | 356° |
| 2026-04-25 13:17 | 35.53721 | 30.84632 | 33948 ft | 477 kts | 356° |
| 2026-04-25 13:17 | 35.60370 | 30.84352 | 33955 ft | 477 kts | 356° |
| 2026-04-25 13:18 | 35.67047 | 30.84072 | 33965 ft | 476 kts | 356° |
| 2026-04-25 13:18 | 35.73673 | 30.83786 | 33961 ft | 476 kts | 356° |
| 2026-04-25 13:19 | 35.80290 | 30.83487 | 33952 ft | 476 kts | 356° |
| 2026-04-25 13:19 | 35.85791 | 30.83243 | 33951 ft | 476 kts | 356° |
| 2026-04-25 13:20 | 35.93523 | 30.82899 | 33952 ft | 475 kts | 356° |
| 2026-04-25 13:20 | 36.00107 | 30.82614 | 33952 ft | 475 kts | 356° |
| 2026-04-25 13:21 | 36.06728 | 30.82331 | 33949 ft | 475 kts | 356° |
| 2026-04-25 13:21 | 36.13435 | 30.82102 | 33949 ft | 476 kts | 357° |
| 2026-04-25 13:22 | 36.20076 | 30.81904 | 33954 ft | 476 kts | 357° |
| 2026-04-25 13:23 | 36.29973 | 30.81594 | 33970 ft | 474 kts | 357° |
| 2026-04-25 13:23 | 36.36569 | 30.81368 | 33978 ft | 474 kts | 357° |
| 2026-04-25 13:24 | 36.43126 | 30.81139 | 33973 ft | 473 kts | 357° |
| 2026-04-25 13:24 | 36.49710 | 30.80917 | 33964 ft | 473 kts | 357° |
| 2026-04-25 13:25 | 36.56296 | 30.80687 | 33963 ft | 473 kts | 357° |
| 2026-04-25 13:25 | 36.62878 | 30.80462 | 33961 ft | 473 kts | 357° |
| 2026-04-25 13:26 | 36.69449 | 30.80231 | 33980 ft | 472 kts | 358° |
| 2026-04-25 13:26 | 36.76054 | 30.80001 | 33975 ft | 472 kts | 358° |
| 2026-04-25 13:27 | 36.82592 | 30.79776 | 33986 ft | 472 kts | 358° |
| 2026-04-25 13:27 | 36.89149 | 30.79545 | 33974 ft | 471 kts | 358° |
| 2026-04-25 13:28 | 36.95711 | 30.79388 | 33977 ft | 471 kts | 359° |
| 2026-04-25 13:28 | 37.02271 | 30.79489 | 33976 ft | 471 kts | 1° |
| 2026-04-25 13:29 | 37.08839 | 30.79660 | 33983 ft | 471 kts | 0° |
| 2026-04-25 13:29 | 37.15396 | 30.79773 | 33992 ft | 470 kts | 0° |
| 2026-04-25 13:30 | 37.25189 | 30.79871 | 34007 ft | 470 kts | 360° |
| 2026-04-25 13:31 | 37.35067 | 30.79996 | 34014 ft | 469 kts | 360° |
| 2026-04-25 13:31 | 37.41611 | 30.80092 | 34016 ft | 469 kts | 360° |
| 2026-04-25 13:32 | 37.48145 | 30.80178 | 34020 ft | 469 kts | 360° |
| 2026-04-25 13:32 | 37.53616 | 30.80248 | 34026 ft | 469 kts | 360° |
| 2026-04-25 13:33 | 37.60117 | 30.80327 | 34035 ft | 469 kts | 360° |
| 2026-04-25 13:33 | 37.66657 | 30.80408 | 34040 ft | 469 kts | 359° |
| 2026-04-25 13:34 | 37.73239 | 30.80490 | 34045 ft | 469 kts | 359° |
| 2026-04-25 13:34 | 37.79760 | 30.80576 | 34050 ft | 468 kts | 359° |
| 2026-04-25 13:35 | 37.86284 | 30.80662 | 34054 ft | 468 kts | 359° |
| 2026-04-25 13:35 | 37.92774 | 30.80747 | 34070 ft | 467 kts | 359° |
| 2026-04-25 13:36 | 37.99318 | 30.80833 | 34058 ft | 466 kts | 359° |
| 2026-04-25 13:36 | 38.05794 | 30.80917 | 34058 ft | 465 kts | 359° |
| 2026-04-25 13:37 | 38.12439 | 30.80977 | 34046 ft | 464 kts | 356° |
| 2026-04-25 13:37 | 38.18841 | 30.80056 | 34037 ft | 463 kts | 351° |
| 2026-04-25 13:38 | 38.25231 | 30.78999 | 34031 ft | 463 kts | 351° |
| 2026-04-25 13:38 | 38.31627 | 30.77941 | 34032 ft | 463 kts | 351° |
| 2026-04-25 13:39 | 38.38016 | 30.76886 | 34021 ft | 464 kts | 350° |
| 2026-04-25 13:39 | 38.44427 | 30.75823 | 34014 ft | 464 kts | 350° |
| 2026-04-25 13:40 | 38.50880 | 30.74749 | 34009 ft | 464 kts | 350° |
| 2026-04-25 13:40 | 38.57338 | 30.73671 | 34006 ft | 465 kts | 350° |
| 2026-04-25 13:41 | 38.63799 | 30.72596 | 34003 ft | 465 kts | 350° |
| 2026-04-25 13:41 | 38.70262 | 30.71524 | 34004 ft | 465 kts | 350° |
| 2026-04-25 13:42 | 38.76727 | 30.70446 | 34005 ft | 465 kts | 349° |
| 2026-04-25 13:42 | 38.83174 | 30.69281 | 33999 ft | 463 kts | 345° |
| 2026-04-25 13:43 | 38.89236 | 30.66417 | 34003 ft | 456 kts | 330° |
| 2026-04-25 13:43 | 38.94897 | 30.62722 | 33994 ft | 457 kts | 330° |
| 2026-04-25 13:44 | 39.00604 | 30.59011 | 33996 ft | 456 kts | 330° |
| 2026-04-25 13:44 | 39.06257 | 30.55324 | 33999 ft | 455 kts | 330° |
| 2026-04-25 13:45 | 39.10949 | 30.52255 | 33996 ft | 455 kts | 330° |
| 2026-04-25 13:45 | 39.16597 | 30.48559 | 33992 ft | 455 kts | 330° |
| 2026-04-25 13:46 | 39.22243 | 30.44856 | 33994 ft | 455 kts | 330° |
| 2026-04-25 13:46 | 39.27881 | 30.41142 | 33995 ft | 454 kts | 330° |
| 2026-04-25 13:47 | 39.33507 | 30.37430 | 33989 ft | 454 kts | 331° |
| 2026-04-25 13:47 | 39.39144 | 30.33723 | 33979 ft | 454 kts | 331° |
| 2026-04-25 13:48 | 39.44783 | 30.30006 | 33973 ft | 455 kts | 331° |
| 2026-04-25 13:48 | 39.50417 | 30.26295 | 33957 ft | 455 kts | 334° |
| 2026-04-25 13:49 | 39.56230 | 30.22982 | 33962 ft | 456 kts | 338° |
| 2026-04-25 13:49 | 39.62156 | 30.19983 | 33968 ft | 457 kts | 339° |
| 2026-04-25 13:50 | 39.68075 | 30.16952 | 33967 ft | 457 kts | 338° |
| 2026-04-25 13:50 | 39.73969 | 30.13806 | 33975 ft | 457 kts | 338° |
| 2026-04-25 13:51 | 39.79852 | 30.10615 | 33980 ft | 457 kts | 339° |
| 2026-04-25 13:51 | 39.85728 | 30.07454 | 33987 ft | 456 kts | 339° |
| 2026-04-25 13:52 | 39.91607 | 30.04289 | 33983 ft | 456 kts | 339° |
| 2026-04-25 13:52 | 39.97462 | 30.01120 | 33987 ft | 455 kts | 339° |
| 2026-04-25 13:53 | 40.03304 | 29.97959 | 33986 ft | 455 kts | 339° |
| 2026-04-25 13:53 | 40.09151 | 29.94795 | 33991 ft | 454 kts | 339° |
| 2026-04-25 13:54 | 40.14985 | 29.91635 | 33986 ft | 454 kts | 339° |
| 2026-04-25 13:54 | 40.20824 | 29.88469 | 33988 ft | 453 kts | 338° |
| 2026-04-25 13:55 | 40.26649 | 29.85309 | 33987 ft | 453 kts | 338° |
| 2026-04-25 13:55 | 40.32471 | 29.82136 | 33983 ft | 452 kts | 338° |
| 2026-04-25 13:56 | 40.38272 | 29.78958 | 33986 ft | 452 kts | 338° |
| 2026-04-25 13:56 | 40.44075 | 29.75779 | 33992 ft | 450 kts | 338° |
| 2026-04-25 13:57 | 40.49854 | 29.72604 | 33993 ft | 450 kts | 338° |
| 2026-04-25 13:57 | 40.55631 | 29.69435 | 33992 ft | 449 kts | 338° |
| 2026-04-25 13:58 | 40.61384 | 29.66268 | 33995 ft | 448 kts | 338° |
| 2026-04-25 13:58 | 40.66982 | 29.62646 | 33995 ft | 448 kts | 326° |
| 2026-04-25 13:59 | 40.71886 | 29.57603 | 34001 ft | 447 kts | 322° |
| 2026-04-25 13:59 | 40.76727 | 29.52494 | 33996 ft | 447 kts | 322° |
| 2026-04-25 14:00 | 40.81604 | 29.47351 | 34009 ft | 447 kts | 322° |
| 2026-04-25 14:00 | 40.86455 | 29.42227 | 34012 ft | 446 kts | 322° |
| 2026-04-25 14:01 | 40.91391 | 29.36995 | 34016 ft | 446 kts | 322° |
| 2026-04-25 14:01 | 40.96183 | 29.31905 | 34012 ft | 446 kts | 322° |
| 2026-04-25 14:02 | 41.00332 | 29.27495 | 34008 ft | 446 kts | 322° |
| 2026-04-25 14:02 | 41.05984 | 29.21476 | 34002 ft | 446 kts | 322° |
| 2026-04-25 14:03 | 41.10844 | 29.16247 | 34001 ft | 446 kts | 319° |
| 2026-04-25 14:03 | 41.14898 | 29.09926 | 34007 ft | 447 kts | 304° |
| 2026-04-25 14:04 | 41.18365 | 29.03002 | 34023 ft | 447 kts | 305° |
| 2026-04-25 14:04 | 41.21245 | 28.97243 | 34207 ft | 446 kts | 305° |
| 2026-04-25 14:04 | 41.22956 | 28.93815 | 34378 ft | 446 kts | 304° |
| 2026-04-25 14:05 | 41.24714 | 28.90287 | 34557 ft | 446 kts | 304° |
| 2026-04-25 14:05 | 41.26426 | 28.86845 | 34741 ft | 446 kts | 305° |
| 2026-04-25 14:05 | 41.28141 | 28.83401 | 34935 ft | 445 kts | 305° |
| 2026-04-25 14:05 | 41.29846 | 28.79978 | 35115 ft | 445 kts | 305° |
| 2026-04-25 14:06 | 41.31554 | 28.76545 | 35272 ft | 445 kts | 304° |
| 2026-04-25 14:06 | 41.33267 | 28.73100 | 35442 ft | 444 kts | 304° |
| 2026-04-25 14:06 | 41.34988 | 28.69630 | 35571 ft | 445 kts | 304° |
| 2026-04-25 14:06 | 41.36689 | 28.66185 | 35718 ft | 445 kts | 304° |
| 2026-04-25 14:07 | 41.38387 | 28.62741 | 35855 ft | 445 kts | 304° |
| 2026-04-25 14:07 | 41.40083 | 28.59300 | 36008 ft | 445 kts | 304° |
| 2026-04-25 14:07 | 41.41785 | 28.55849 | 36036 ft | 445 kts | 304° |
| 2026-04-25 14:08 | 41.45188 | 28.48956 | 36035 ft | 446 kts | 304° |
| 2026-04-25 14:08 | 41.48586 | 28.42076 | 36037 ft | 445 kts | 307° |
| 2026-04-25 14:09 | 41.52749 | 28.36001 | 36036 ft | 443 kts | 317° |
| 2026-04-25 14:09 | 41.57148 | 28.30221 | 36038 ft | 443 kts | 316° |
| 2026-04-25 14:10 | 41.61540 | 28.24434 | 36038 ft | 443 kts | 317° |
| 2026-04-25 14:10 | 41.65918 | 28.18643 | 36047 ft | 442 kts | 316° |
| 2026-04-25 14:11 | 41.70292 | 28.12844 | 36050 ft | 442 kts | 316° |
| 2026-04-25 14:11 | 41.74649 | 28.07069 | 36050 ft | 441 kts | 316° |
| 2026-04-25 14:12 | 41.79011 | 28.01272 | 36050 ft | 441 kts | 316° |
| 2026-04-25 14:12 | 41.83284 | 27.95589 | 36047 ft | 441 kts | 316° |
| 2026-04-25 14:13 | 41.87637 | 27.89793 | 36046 ft | 441 kts | 316° |
| 2026-04-25 14:13 | 41.91876 | 27.84123 | 36045 ft | 441 kts | 316° |
| 2026-04-25 14:14 | 41.96219 | 27.78302 | 36040 ft | 440 kts | 316° |
| 2026-04-25 14:14 | 42.00552 | 27.72425 | 36039 ft | 440 kts | 316° |
| 2026-04-25 14:15 | 42.04831 | 27.66551 | 36036 ft | 439 kts | 316° |
| 2026-04-25 14:15 | 42.09112 | 27.60684 | 36034 ft | 439 kts | 316° |
| 2026-04-25 14:16 | 42.13388 | 27.54818 | 36030 ft | 438 kts | 316° |
| 2026-04-25 14:16 | 42.17659 | 27.48935 | 36035 ft | 438 kts | 316° |
| 2026-04-25 14:17 | 42.21924 | 27.43043 | 36031 ft | 438 kts | 316° |
| 2026-04-25 14:17 | 42.26175 | 27.37157 | 36028 ft | 437 kts | 316° |
| 2026-04-25 14:18 | 42.30402 | 27.31299 | 36032 ft | 437 kts | 316° |
| 2026-04-25 14:18 | 42.34654 | 27.25407 | 36028 ft | 436 kts | 316° |
| 2026-04-25 14:19 | 42.38895 | 27.19525 | 36023 ft | 436 kts | 316° |
| 2026-04-25 14:19 | 42.43114 | 27.13635 | 36026 ft | 435 kts | 316° |
| 2026-04-25 14:20 | 42.47352 | 27.07717 | 36027 ft | 434 kts | 316° |
| 2026-04-25 14:20 | 42.51575 | 27.01809 | 36023 ft | 433 kts | 316° |
| 2026-04-25 14:21 | 42.55771 | 26.95929 | 36019 ft | 433 kts | 316° |
| 2026-04-25 14:21 | 42.59952 | 26.90054 | 36011 ft | 432 kts | 316° |
| 2026-04-25 14:22 | 42.64125 | 26.84193 | 36013 ft | 431 kts | 316° |
| 2026-04-25 14:22 | 42.68323 | 26.78279 | 36012 ft | 431 kts | 316° |
| 2026-04-25 14:23 | 42.71916 | 26.73188 | 36007 ft | 431 kts | 316° |
| 2026-04-25 14:23 | 42.76064 | 26.67300 | 36010 ft | 430 kts | 316° |
| 2026-04-25 14:24 | 42.80254 | 26.61354 | 36011 ft | 429 kts | 316° |
| 2026-04-25 14:24 | 42.84392 | 26.55474 | 36008 ft | 429 kts | 316° |
| 2026-04-25 14:25 | 42.88560 | 26.49536 | 36002 ft | 429 kts | 315° |
| 2026-04-25 14:25 | 42.92745 | 26.43563 | 36006 ft | 428 kts | 315° |
| 2026-04-25 14:26 | 42.96860 | 26.37671 | 36009 ft | 428 kts | 316° |
| 2026-04-25 14:26 | 43.00961 | 26.31787 | 36007 ft | 428 kts | 315° |
| 2026-04-25 14:27 | 43.05083 | 26.25863 | 36013 ft | 427 kts | 315° |
| 2026-04-25 14:27 | 43.09264 | 26.19853 | 36004 ft | 426 kts | 315° |
| 2026-04-25 14:28 | 43.13341 | 26.13972 | 36011 ft | 425 kts | 315° |
| 2026-04-25 14:28 | 43.17415 | 26.08071 | 36006 ft | 425 kts | 315° |
| 2026-04-25 14:29 | 43.21510 | 26.02133 | 36004 ft | 425 kts | 315° |
| 2026-04-25 14:29 | 43.25573 | 25.96236 | 35999 ft | 425 kts | 315° |
| 2026-04-25 14:30 | 43.29659 | 25.90305 | 36004 ft | 424 kts | 315° |
| 2026-04-25 14:30 | 43.35733 | 25.81442 | 36007 ft | 424 kts | 315° |
| 2026-04-25 14:31 | 43.39796 | 25.75482 | 36018 ft | 424 kts | 315° |
| 2026-04-25 14:31 | 43.43816 | 25.69583 | 36010 ft | 424 kts | 315° |
| 2026-04-25 14:32 | 43.47866 | 25.63638 | 36007 ft | 424 kts | 315° |
| 2026-04-25 14:32 | 43.51891 | 25.57723 | 36012 ft | 424 kts | 315° |
| 2026-04-25 14:33 | 43.55918 | 25.51784 | 36001 ft | 423 kts | 315° |
| 2026-04-25 14:33 | 43.59933 | 25.45851 | 36007 ft | 423 kts | 315° |
| 2026-04-25 14:34 | 43.64335 | 25.40548 | 36009 ft | 419 kts | 329° |
| 2026-04-25 14:34 | 43.69414 | 25.36606 | 36016 ft | 418 kts | 332° |
| 2026-04-25 14:35 | 43.74490 | 25.32662 | 36020 ft | 418 kts | 331° |
| 2026-04-25 14:35 | 43.79564 | 25.28695 | 36017 ft | 418 kts | 331° |
| 2026-04-25 14:36 | 43.84637 | 25.24739 | 36019 ft | 418 kts | 331° |
| 2026-04-25 14:36 | 43.88928 | 25.21401 | 36020 ft | 418 kts | 331° |
| 2026-04-25 14:37 | 43.94000 | 25.17450 | 36024 ft | 418 kts | 331° |
| 2026-04-25 14:37 | 43.99060 | 25.13489 | 36014 ft | 418 kts | 331° |
| 2026-04-25 14:38 | 44.04149 | 25.09491 | 36015 ft | 417 kts | 331° |
| 2026-04-25 14:38 | 44.09198 | 25.05518 | 36014 ft | 417 kts | 331° |
| 2026-04-25 14:39 | 44.14218 | 25.01565 | 36012 ft | 417 kts | 331° |
| 2026-04-25 14:39 | 44.19096 | 24.97707 | 36020 ft | 417 kts | 330° |
| 2026-04-25 14:40 | 44.24172 | 24.93684 | 36012 ft | 416 kts | 330° |
| 2026-04-25 14:40 | 44.29211 | 24.89692 | 36015 ft | 416 kts | 330° |
| 2026-04-25 14:41 | 44.34247 | 24.85691 | 36015 ft | 416 kts | 330° |
| 2026-04-25 14:41 | 44.39287 | 24.81690 | 36009 ft | 416 kts | 330° |
| 2026-04-25 14:42 | 44.43473 | 24.78367 | 36020 ft | 416 kts | 330° |
| 2026-04-25 14:42 | 44.49331 | 24.73689 | 36018 ft | 415 kts | 330° |
| 2026-04-25 14:43 | 44.54312 | 24.69700 | 36019 ft | 415 kts | 330° |
| 2026-04-25 14:43 | 44.59307 | 24.65690 | 36017 ft | 415 kts | 330° |
| 2026-04-25 14:44 | 44.64378 | 24.61606 | 36013 ft | 414 kts | 330° |
| 2026-04-25 14:44 | 44.69382 | 24.57570 | 36022 ft | 414 kts | 329° |
| 2026-04-25 14:45 | 44.74374 | 24.53543 | 36016 ft | 414 kts | 329° |
| 2026-04-25 14:45 | 44.79366 | 24.49510 | 36014 ft | 413 kts | 329° |
| 2026-04-25 14:46 | 44.84355 | 24.45464 | 36014 ft | 413 kts | 329° |
| 2026-04-25 14:46 | 44.89341 | 24.41420 | 36006 ft | 413 kts | 329° |
| 2026-04-25 14:47 | 44.93485 | 24.38052 | 36015 ft | 413 kts | 329° |
| 2026-04-25 14:47 | 44.99290 | 24.33307 | 36005 ft | 412 kts | 329° |
| 2026-04-25 14:48 | 45.04260 | 24.29246 | 36003 ft | 412 kts | 329° |
| 2026-04-25 14:48 | 45.09223 | 24.25189 | 36000 ft | 412 kts | 329° |
| 2026-04-25 14:49 | 45.14188 | 24.21119 | 35996 ft | 412 kts | 329° |
| 2026-04-25 14:49 | 45.19138 | 24.17048 | 36015 ft | 411 kts | 328° |
| 2026-04-25 14:50 | 45.24091 | 24.12972 | 36008 ft | 410 kts | 328° |
| 2026-04-25 14:50 | 45.29028 | 24.08902 | 36001 ft | 410 kts | 328° |
| 2026-04-25 14:51 | 45.33958 | 24.04819 | 35998 ft | 409 kts | 328° |
| 2026-04-25 14:51 | 45.38869 | 24.00742 | 35990 ft | 408 kts | 328° |
| 2026-04-25 14:52 | 45.43757 | 23.96680 | 36000 ft | 408 kts | 328° |
| 2026-04-25 14:52 | 45.47859 | 23.93264 | 35992 ft | 409 kts | 328° |
| 2026-04-25 14:53 | 45.53606 | 23.88491 | 35991 ft | 409 kts | 328° |
| 2026-04-25 14:53 | 45.58498 | 23.84417 | 35989 ft | 408 kts | 328° |
| 2026-04-25 14:54 | 45.63403 | 23.80308 | 35984 ft | 408 kts | 327° |
| 2026-04-25 14:54 | 45.68306 | 23.76179 | 35983 ft | 408 kts | 327° |
| 2026-04-25 14:55 | 45.73178 | 23.72084 | 35981 ft | 408 kts | 327° |
| 2026-04-25 14:55 | 45.78087 | 23.67965 | 35977 ft | 408 kts | 327° |
| 2026-04-25 14:56 | 45.82949 | 23.63867 | 35974 ft | 407 kts | 327° |
| 2026-04-25 14:56 | 45.87828 | 23.59730 | 35974 ft | 407 kts | 327° |
| 2026-04-25 14:57 | 45.92727 | 23.55575 | 35965 ft | 407 kts | 327° |
| 2026-04-25 14:57 | 45.97589 | 23.51448 | 35982 ft | 407 kts | 327° |
| 2026-04-25 14:58 | 46.02475 | 23.47286 | 35972 ft | 407 kts | 327° |
| 2026-04-25 14:58 | 46.07322 | 23.43150 | 35973 ft | 407 kts | 327° |
| 2026-04-25 14:59 | 46.12197 | 23.38988 | 35963 ft | 406 kts | 327° |
| 2026-04-25 14:59 | 46.17056 | 23.34831 | 35963 ft | 406 kts | 327° |
| 2026-04-25 15:00 | 46.21896 | 23.30678 | 35959 ft | 406 kts | 326° |
| 2026-04-25 15:00 | 46.26661 | 23.26569 | 35975 ft | 406 kts | 327° |
| 2026-04-25 15:01 | 46.31504 | 23.21875 | 35966 ft | 409 kts | 333° |
| 2026-04-25 15:01 | 46.36889 | 23.18938 | 35968 ft | 410 kts | 334° |
| 2026-04-25 15:02 | 46.42147 | 23.15702 | 35968 ft | 410 kts | 333° |
| 2026-04-25 15:02 | 46.46492 | 23.12936 | 35962 ft | 410 kts | 333° |
| 2026-04-25 15:03 | 46.51750 | 23.09668 | 35962 ft | 411 kts | 333° |
| 2026-04-25 15:03 | 46.57017 | 23.06457 | 35956 ft | 411 kts | 333° |
| 2026-04-25 15:04 | 46.62295 | 23.03240 | 35960 ft | 411 kts | 333° |
| 2026-04-25 15:04 | 46.67562 | 23.00015 | 35957 ft | 411 kts | 333° |
| 2026-04-25 15:05 | 46.72900 | 22.96724 | 35981 ft | 411 kts | 333° |
| 2026-04-25 15:06 | 46.80829 | 22.91834 | 35961 ft | 411 kts | 333° |
| 2026-04-25 15:06 | 46.86094 | 22.88579 | 35957 ft | 411 kts | 333° |
| 2026-04-25 15:07 | 46.91328 | 22.85346 | 35958 ft | 411 kts | 333° |
| 2026-04-25 15:07 | 46.96631 | 22.82060 | 35956 ft | 411 kts | 333° |
| 2026-04-25 15:08 | 47.01896 | 22.78780 | 35981 ft | 411 kts | 333° |
| 2026-04-25 15:08 | 47.07150 | 22.75492 | 35958 ft | 410 kts | 332° |
| 2026-04-25 15:09 | 47.12606 | 22.72075 | 35951 ft | 410 kts | 332° |
| 2026-04-25 15:09 | 47.20484 | 22.67144 | 35946 ft | 410 kts | 332° |
| 2026-04-25 15:10 | 47.24821 | 22.64421 | 35966 ft | 410 kts | 332° |
| 2026-04-25 15:12 | 47.42018 | 22.53564 | 35937 ft | 409 kts | 332° |
| 2026-04-25 15:12 | 47.45517 | 22.51342 | 35937 ft | 409 kts | 332° |
| 2026-04-25 15:13 | 47.55105 | 22.45258 | 35953 ft | 409 kts | 332° |
| 2026-04-25 15:14 | 47.59486 | 22.42462 | 35945 ft | 409 kts | 332° |
| 2026-04-25 15:14 | 47.64742 | 22.39097 | 35938 ft | 409 kts | 332° |
| 2026-04-25 15:15 | 47.69946 | 22.35777 | 35931 ft | 409 kts | 332° |
| 2026-04-25 15:15 | 47.75174 | 22.32427 | 35926 ft | 409 kts | 331° |
| 2026-04-25 15:16 | 47.80397 | 22.29062 | 35942 ft | 409 kts | 331° |
| 2026-04-25 15:16 | 47.88257 | 22.23994 | 35931 ft | 409 kts | 331° |
| 2026-04-25 15:17 | 47.96065 | 22.18941 | 35929 ft | 408 kts | 331° |
| 2026-04-25 15:18 | 48.01298 | 22.15543 | 35930 ft | 408 kts | 331° |
| 2026-04-25 15:18 | 48.09109 | 22.10460 | 35938 ft | 408 kts | 331° |
| 2026-04-25 15:19 | 48.13440 | 22.07638 | 35935 ft | 408 kts | 331° |
| 2026-04-25 15:19 | 48.19518 | 22.03660 | 35920 ft | 407 kts | 331° |
| 2026-04-25 15:20 | 48.24725 | 22.00246 | 35915 ft | 407 kts | 331° |
| 2026-04-25 15:20 | 48.27307 | 21.98554 | 35474 ft | 405 kts | 330° |
| 2026-04-25 15:20 | 48.29865 | 21.96874 | 34721 ft | 406 kts | 330° |
| 2026-04-25 15:21 | 48.32457 | 21.95170 | 34120 ft | 406 kts | 330° |
| 2026-04-25 15:21 | 48.35068 | 21.93559 | 33938 ft | 412 kts | 335° |
| 2026-04-25 15:21 | 48.40793 | 21.91774 | 33911 ft | 424 kts | 345° |
| 2026-04-25 15:22 | 48.46621 | 21.90566 | 33902 ft | 424 kts | 345° |
| 2026-04-25 15:22 | 48.52501 | 21.89319 | 33898 ft | 424 kts | 345° |
| 2026-04-25 15:23 | 48.58352 | 21.88082 | 33903 ft | 423 kts | 345° |
| 2026-04-25 15:23 | 48.64180 | 21.86851 | 33895 ft | 423 kts | 345° |
| 2026-04-25 15:24 | 48.70034 | 21.85815 | 33885 ft | 431 kts | 354° |
| 2026-04-25 15:24 | 48.75043 | 21.86427 | 33892 ft | 435 kts | 357° |
| 2026-04-25 15:25 | 48.82100 | 21.87347 | 33899 ft | 436 kts | 357° |
| 2026-04-25 15:25 | 48.88163 | 21.88118 | 33893 ft | 436 kts | 357° |
| 2026-04-25 15:26 | 48.94215 | 21.88886 | 33891 ft | 437 kts | 357° |
| 2026-04-25 15:26 | 48.97249 | 21.89278 | 33747 ft | 438 kts | 357° |
| 2026-04-25 15:26 | 49.00322 | 21.89678 | 32836 ft | 439 kts | 357° |
| 2026-04-25 15:27 | 49.03368 | 21.90074 | 31916 ft | 439 kts | 357° |
| 2026-04-25 15:27 | 49.06423 | 21.90475 | 30939 ft | 441 kts | 357° |
| 2026-04-25 15:27 | 49.12552 | 21.91283 | 28842 ft | 444 kts | 358° |
| 2026-04-25 15:28 | 49.15636 | 21.91689 | 27760 ft | 444 kts | 358° |
| 2026-04-25 15:28 | 49.18715 | 21.92093 | 26651 ft | 445 kts | 358° |
| 2026-04-25 15:28 | 49.21820 | 21.92494 | 25459 ft | 448 kts | 358° |
| 2026-04-25 15:28 | 49.24940 | 21.92897 | 24350 ft | 451 kts | 359° |
| 2026-04-25 15:29 | 49.28076 | 21.93306 | 23184 ft | 453 kts | 359° |
| 2026-04-25 15:29 | 49.31217 | 21.93718 | 22124 ft | 451 kts | 360° |
| 2026-04-25 15:29 | 49.34314 | 21.94131 | 21322 ft | 444 kts | 360° |
| 2026-04-25 15:29 | 49.37421 | 21.94543 | 20718 ft | 440 kts | 0° |
| 2026-04-25 15:30 | 49.38450 | 21.94680 | 20644 ft | 440 kts | 0° |
| 2026-04-25 15:30 | 49.43637 | 21.95356 | 20098 ft | 438 kts | 360° |
| 2026-04-25 15:30 | 49.46624 | 21.95744 | 19879 ft | 436 kts | 0° |
| 2026-04-25 15:30 | 49.49620 | 21.96144 | 19162 ft | 431 kts | 0° |
| 2026-04-25 15:31 | 49.52649 | 21.96553 | 18346 ft | 428 kts | 0° |
| 2026-04-25 15:31 | 49.55715 | 21.96971 | 17469 ft | 424 kts | 1° |
| 2026-04-25 15:31 | 49.57604 | 21.97226 | 16994 ft | 421 kts | 1° |
| 2026-04-25 15:31 | 49.60753 | 21.97648 | 16196 ft | 415 kts | 1° |
| 2026-04-25 15:32 | 49.63622 | 21.98031 | 15501 ft | 410 kts | 1° |
| 2026-04-25 15:32 | 49.66812 | 21.98458 | 14733 ft | 405 kts | 1° |
| 2026-04-25 15:32 | 49.69500 | 21.98816 | 14122 ft | 401 kts | 0° |
| 2026-04-25 15:33 | 49.75001 | 21.99541 | 12793 ft | 392 kts | 0° |
| 2026-04-25 15:33 | 49.77702 | 21.99901 | 12176 ft | 386 kts | 0° |
| 2026-04-25 15:33 | 49.80435 | 22.00271 | 11544 ft | 380 kts | 1° |
| 2026-04-25 15:33 | 49.83065 | 22.00632 | 11196 ft | 368 kts | 1° |
| 2026-04-25 15:34 | 49.85551 | 22.00977 | 11057 ft | 351 kts | 1° |
| 2026-04-25 15:34 | 49.87816 | 22.01287 | 10935 ft | 336 kts | 0° |
| 2026-04-25 15:34 | 49.90249 | 22.01621 | 10801 ft | 320 kts | 0° |
| 2026-04-25 15:34 | 49.91020 | 22.01723 | 10757 ft | 315 kts | 0° |
| 2026-04-25 15:35 | 49.96466 | 22.02454 | 10431 ft | 286 kts | 359° |
| 2026-04-25 15:35 | 49.98396 | 22.02842 | 10235 ft | 284 kts | 10° |
| 2026-04-25 15:35 | 49.99488 | 22.03512 | 10207 ft | 290 kts | 23° |
| 2026-04-25 15:36 | 50.02100 | 22.08841 | 9968 ft | 312 kts | 73° |
| 2026-04-25 15:36 | 50.02427 | 22.12366 | 9702 ft | 318 kts | 83° |
| 2026-04-25 15:36 | 50.02497 | 22.15877 | 9048 ft | 327 kts | 88° |
| 2026-04-25 15:37 | 50.02440 | 22.19354 | 8835 ft | 318 kts | 90° |
| 2026-04-25 15:37 | 50.02356 | 22.22827 | 8439 ft | 316 kts | 90° |
| 2026-04-25 15:37 | 50.02287 | 22.26248 | 8029 ft | 314 kts | 89° |
| 2026-04-25 15:37 | 50.02546 | 22.29537 | 7414 ft | 304 kts | 67° |
| 2026-04-25 15:38 | 50.03523 | 22.32355 | 6745 ft | 292 kts | 45° |
| 2026-04-25 15:38 | 50.05019 | 22.34401 | 6005 ft | 283 kts | 24° |
| 2026-04-25 15:38 | 50.06801 | 22.35523 | 5332 ft | 270 kts | 5° |
| 2026-04-25 15:38 | 50.08550 | 22.35368 | 5093 ft | 234 kts | 333° |
| 2026-04-25 15:39 | 50.09778 | 22.34099 | 4999 ft | 206 kts | 307° |
| 2026-04-25 15:39 | 50.10462 | 22.32150 | 4916 ft | 200 kts | 283° |
| 2026-04-25 15:39 | 50.10592 | 22.29995 | 4833 ft | 203 kts | 273° |
| 2026-04-25 15:39 | 50.10621 | 22.27810 | 4790 ft | 200 kts | 272° |
| 2026-04-25 15:40 | 50.10649 | 22.25651 | 4401 ft | 196 kts | 272° |
| 2026-04-25 15:40 | 50.10670 | 22.24257 | 4310 ft | 185 kts | 272° |
| 2026-04-25 15:40 | 50.10709 | 22.21640 | 3705 ft | 176 kts | 271° |
| 2026-04-25 15:40 | 50.10739 | 22.19753 | 3094 ft | 174 kts | 271° |
| 2026-04-25 15:41 | 50.10766 | 22.17929 | 2484 ft | 172 kts | 271° |
| 2026-04-25 15:41 | 50.10795 | 22.15982 | 2017 ft | 173 kts | 272° |
| 2026-04-25 15:41 | 50.10820 | 22.14314 | 1853 ft | 156 kts | 270° |
| 2026-04-25 15:41 | 50.10853 | 22.12442 | 1669 ft | 140 kts | 270° |
| 2026-04-25 15:42 | 50.10911 | 22.10995 | 1411 ft | 131 kts | 270° |
| 2026-04-25 15:42 | 50.10918 | 22.10009 | 1355 ft | 129 kts | 270° |
| 2026-04-25 15:42 | 50.10923 | 22.08595 | 1208 ft | 130 kts | 268° |
| 2026-04-25 15:42 | 50.10921 | 22.07199 | 1086 ft | 135 kts | 273° |
| 2026-04-25 15:44 | 50.10938 | 22.06693 | 675 ft | 0 kts | 277° |
| 2026-04-25 15:44 | 50.10921 | 22.05994 | 805 ft | 0 kts | 276° |
| 2026-04-25 15:44 | 50.10931 | 22.05789 | 874 ft | 141 kts | 274° |
| 2026-04-25 15:44 | 50.10973 | 22.04262 | 681 ft | 131 kts | 269° |
| 2026-04-25 15:45 | 50.10971 | 22.03441 | 690 ft | 85 kts | 262° |
| 2026-04-25 15:45 | 50.10976 | 22.03006 | 692 ft | 6 kts | 262° |
| 2026-04-25 15:45 | 50.10975 | 22.03004 | 692 ft | 0 kts | 262° |
| 2026-04-25 15:46 | 50.10981 | 22.02853 | 691 ft | 20 kts | 274° |
| 2026-04-25 15:46 | 50.10986 | 22.02624 | 696 ft | 18 kts | 271° |
| 2026-04-25 15:46 | 50.10989 | 22.02432 | 696 ft | 18 kts | 271° |
| 2026-04-25 15:46 | 50.11039 | 22.02304 | 694 ft | 13 kts | 5° |
| 2026-04-25 15:47 | 50.11049 | 22.02306 | 694 ft | 0 kts | 7° |
| 2026-04-25 15:47 | 50.11164 | 22.02292 | 685 ft | 0 kts | 11° |
| 2026-04-25 15:47 | 50.11256 | 22.02302 | 689 ft | 20 kts | 354° |
| 2026-04-25 15:47 | 50.11292 | 22.02313 | 691 ft | 0 kts | 33° |
| 2026-04-25 15:49 | 50.11303 | 22.02325 | 691 ft | 12 kts | 37° |
| 2026-04-25 15:49 | 50.11325 | 22.02443 | 691 ft | 11 kts | 90° |
| 2026-04-25 15:49 | 50.11341 | 22.02535 | 686 ft | 8 kts | 21° |
| 2026-04-25 15:50 | 50.11389 | 22.02534 | 691 ft | 6 kts | 0° |
| 2026-04-25 15:50 | 50.11407 | 22.02535 | 688 ft | 4 kts | 1° |
| 2026-04-25 15:50 | 50.11412 | 22.02535 | 688 ft | 0 kts | 1° |
| 2026-04-25 15:58 | 50.11413 | 22.02535 | 688 ft | 0 kts | 1° |